createdAt,value
2023-12-11T00:00:03.229Z,0.48
2023-12-11T00:00:35.105Z,0.55
2023-12-11T00:01:07.749Z,0.57
2023-12-11T00:01:40.394Z,0.59
2023-12-11T00:02:12.200Z,0.60
2023-12-11T00:02:45.944Z,0.63
2023-12-11T00:03:18.941Z,0.62
2023-12-11T00:03:50.760Z,0.62
2023-12-11T00:04:22.544Z,0.69
2023-12-11T00:04:54.423Z,0.74
2023-12-11T00:05:26.277Z,0.70
2023-12-11T00:05:58.035Z,0.62
2023-12-11T00:06:29.766Z,0.66
2023-12-11T00:07:01.504Z,0.66
2023-12-11T00:07:33.287Z,0.64
2023-12-11T00:08:05.060Z,0.60
2023-12-11T00:08:37.059Z,0.60
2023-12-11T00:09:08.793Z,0.59
2023-12-11T00:09:40.720Z,0.59
2023-12-11T00:10:12.528Z,0.69
2023-12-11T00:10:44.562Z,0.72
2023-12-11T00:11:16.385Z,0.60
2023-12-11T00:11:48.155Z,0.56
2023-12-11T00:12:19.845Z,0.48
2023-12-11T00:12:51.678Z,0.55
2023-12-11T00:13:23.382Z,0.53
2023-12-11T00:13:55.214Z,0.43
2023-12-11T00:14:27.084Z,0.45
2023-12-11T00:15:00.867Z,0.49
2023-12-11T00:15:32.600Z,0.43
2023-12-11T00:16:04.788Z,0.45
2023-12-11T00:16:36.490Z,0.48
2023-12-11T00:17:08.182Z,0.49
2023-12-11T00:17:40.105Z,0.48
2023-12-11T00:18:11.953Z,0.39
2023-12-11T00:18:44.087Z,0.43
2023-12-11T00:19:16.293Z,0.43
2023-12-11T00:19:48.079Z,0.46
2023-12-11T00:20:19.990Z,0.43
2023-12-11T00:20:51.746Z,0.48
2023-12-11T00:21:23.546Z,0.49
2023-12-11T00:21:55.592Z,0.50
2023-12-11T00:22:27.392Z,0.59
2023-12-11T00:22:59.741Z,0.53
2023-12-11T00:23:31.525Z,0.38
2023-12-11T00:24:04.665Z,0.43
2023-12-11T00:24:36.490Z,0.43
2023-12-11T00:25:08.687Z,0.42
2023-12-11T00:25:48.002Z,0.30
2023-12-11T00:26:19.753Z,0.30
2023-12-11T00:26:51.501Z,0.35
2023-12-11T00:27:23.188Z,0.33
2023-12-11T00:27:54.944Z,0.39
2023-12-11T00:28:26.708Z,0.38
2023-12-11T00:28:58.478Z,0.41
2023-12-11T00:29:30.198Z,0.36
2023-12-11T00:30:01.960Z,0.32
2023-12-11T00:30:33.686Z,0.33
2023-12-11T00:31:12.137Z,0.39
2023-12-11T00:31:45.506Z,0.45
2023-12-11T00:32:17.283Z,0.49
2023-12-11T00:32:48.992Z,0.50
2023-12-11T00:33:20.910Z,0.52
2023-12-11T00:33:52.747Z,0.46
2023-12-11T00:34:24.653Z,0.46
2023-12-11T00:34:56.501Z,0.48
2023-12-11T00:35:28.374Z,0.46
2023-12-11T00:36:00.147Z,0.50
2023-12-11T00:36:31.911Z,0.56
2023-12-11T00:37:03.903Z,0.55
2023-12-11T00:37:35.772Z,0.57
2023-12-11T00:38:07.470Z,0.53
2023-12-11T00:38:39.212Z,0.52
2023-12-11T00:39:11.675Z,0.41
2023-12-11T00:39:43.417Z,0.39
2023-12-11T00:40:15.232Z,0.38
2023-12-11T00:40:47.890Z,0.36
2023-12-11T00:41:19.916Z,0.45
2023-12-11T00:41:51.682Z,0.45
2023-12-11T00:42:23.352Z,0.41
2023-12-11T00:42:55.161Z,0.39
2023-12-11T00:43:26.981Z,0.42
2023-12-11T00:44:16.042Z,0.38
2023-12-11T00:44:47.845Z,0.41
2023-12-11T00:45:19.589Z,0.45
2023-12-11T00:45:51.356Z,0.30
2023-12-11T00:46:24.068Z,0.32
2023-12-11T00:46:55.718Z,0.28
2023-12-11T00:47:27.621Z,0.26
2023-12-11T00:47:59.713Z,0.30
2023-12-11T00:48:31.652Z,0.25
2023-12-11T00:49:03.641Z,0.19
2023-12-11T00:49:35.564Z,0.19
2023-12-11T00:50:07.889Z,0.24
2023-12-11T00:50:39.744Z,0.21
2023-12-11T00:51:22.151Z,0.24
2023-12-11T00:51:54.390Z,0.15
2023-12-11T00:52:26.300Z,0.14
2023-12-11T00:52:57.974Z,0.16
2023-12-11T00:53:29.684Z,0.18
2023-12-11T00:54:01.417Z,0.16
2023-12-11T00:54:33.142Z,0.14
2023-12-11T00:55:05.410Z,0.22
2023-12-11T00:55:37.152Z,0.22
2023-12-11T00:56:09.165Z,0.30
2023-12-11T00:56:41.040Z,0.28
2023-12-11T00:57:12.748Z,0.35
2023-12-11T00:57:44.463Z,0.32
2023-12-11T00:58:16.328Z,0.32
2023-12-11T00:58:48.255Z,0.32
2023-12-11T00:59:19.979Z,0.42
2023-12-11T00:59:51.808Z,0.41
2023-12-11T01:00:23.532Z,0.32
2023-12-11T01:00:55.409Z,0.38
2023-12-11T01:01:27.295Z,0.39
2023-12-11T01:01:59.163Z,0.39
2023-12-11T01:02:30.848Z,0.39
2023-12-11T01:03:04.215Z,0.41
2023-12-11T01:03:38.220Z,0.39
2023-12-11T01:04:12.606Z,0.38
2023-12-11T01:04:44.434Z,0.38
2023-12-11T01:05:16.316Z,0.38
2023-12-11T01:05:47.992Z,0.33
2023-12-11T01:06:19.699Z,0.28
2023-12-11T01:06:51.842Z,0.30
2023-12-11T01:07:23.547Z,0.28
2023-12-11T01:07:55.272Z,0.28
2023-12-11T01:08:31.445Z,0.26
2023-12-11T01:09:03.405Z,0.28
2023-12-11T01:09:35.259Z,0.25
2023-12-11T01:10:07.666Z,0.29
2023-12-11T01:10:39.519Z,0.35
2023-12-11T01:11:11.341Z,0.30
2023-12-11T01:11:43.087Z,0.30
2023-12-11T01:12:14.789Z,0.35
2023-12-11T01:12:46.834Z,0.30
2023-12-11T01:13:18.539Z,0.35
2023-12-11T01:13:50.390Z,0.39
2023-12-11T01:14:22.126Z,0.39
2023-12-11T01:14:54.105Z,0.41
2023-12-11T01:15:25.793Z,0.39
2023-12-11T01:15:57.725Z,0.42
2023-12-11T01:16:29.445Z,0.30
2023-12-11T01:17:35.888Z,0.26
2023-12-11T01:17:53.258Z,0.29
2023-12-11T01:18:25.925Z,0.28
2023-12-11T01:18:57.933Z,0.28
2023-12-11T01:19:29.915Z,0.26
2023-12-11T01:20:01.670Z,0.26
2023-12-11T01:20:33.644Z,0.30
2023-12-11T01:21:05.551Z,0.36
2023-12-11T01:21:37.356Z,0.38
2023-12-11T01:22:09.169Z,0.38
2023-12-11T01:22:40.958Z,0.28
2023-12-11T01:23:12.710Z,0.26
2023-12-11T01:23:44.510Z,0.30
2023-12-11T01:24:16.236Z,0.29
2023-12-11T01:24:48.069Z,0.38
2023-12-11T01:25:19.925Z,0.43
2023-12-11T01:25:51.636Z,0.39
2023-12-11T01:26:24.421Z,0.41
2023-12-11T01:26:56.151Z,0.38
2023-12-11T01:27:28.016Z,0.35
2023-12-11T01:27:59.943Z,0.30
2023-12-11T01:28:31.904Z,0.39
2023-12-11T01:29:03.635Z,0.33
2023-12-11T01:29:36.570Z,0.35
2023-12-11T01:30:08.757Z,0.32
2023-12-11T01:30:40.455Z,0.33
2023-12-11T01:31:12.326Z,0.30
2023-12-11T01:31:44.085Z,0.30
2023-12-11T01:32:15.801Z,0.28
2023-12-11T01:32:47.517Z,0.39
2023-12-11T01:33:19.421Z,0.49
2023-12-11T01:33:51.209Z,0.49
2023-12-11T01:34:23.097Z,0.46
2023-12-11T01:34:54.995Z,0.45
2023-12-11T01:35:26.712Z,0.43
2023-12-11T01:35:58.484Z,0.42
2023-12-11T01:36:30.160Z,0.41
2023-12-11T01:37:02.026Z,0.41
2023-12-11T01:37:33.839Z,0.36
2023-12-11T01:38:05.543Z,0.26
2023-12-11T01:38:37.244Z,0.28
2023-12-11T01:39:08.977Z,0.21
2023-12-11T01:39:40.707Z,0.19
2023-12-11T01:40:12.983Z,0.21
2023-12-11T01:40:45.408Z,0.11
2023-12-11T01:41:17.788Z,0.12
2023-12-11T01:41:49.521Z,0.15
2023-12-11T01:42:21.214Z,0.21
2023-12-11T01:43:01.181Z,0.25
2023-12-11T01:43:39.018Z,0.24
2023-12-11T01:44:10.853Z,0.24
2023-12-11T01:44:42.647Z,0.24
2023-12-11T01:45:14.558Z,0.25
2023-12-11T01:45:54.620Z,0.29
2023-12-11T01:46:26.562Z,0.26
2023-12-11T01:46:58.416Z,0.30
2023-12-11T01:47:30.484Z,0.35
2023-12-11T01:48:02.539Z,0.38
2023-12-11T01:48:37.018Z,0.39
2023-12-11T01:49:10.084Z,0.39
2023-12-11T01:49:42.352Z,0.36
2023-12-11T01:50:14.145Z,0.33
2023-12-11T01:50:45.902Z,0.41
2023-12-11T01:51:21.193Z,0.42
2023-12-11T01:51:53.006Z,0.43
2023-12-11T01:52:25.911Z,0.32
2023-12-11T01:52:57.947Z,0.29
2023-12-11T01:53:30.687Z,0.28
2023-12-11T01:54:03.158Z,0.28
2023-12-11T01:54:36.106Z,0.29
2023-12-11T01:55:08.419Z,0.30
2023-12-11T01:55:40.636Z,0.38
2023-12-11T01:56:12.512Z,0.36
2023-12-11T01:56:44.275Z,0.32
2023-12-11T01:57:15.982Z,0.25
2023-12-11T01:57:48.749Z,0.19
2023-12-11T01:58:20.807Z,0.21
2023-12-11T01:58:52.801Z,0.30
2023-12-11T01:59:24.606Z,0.36
2023-12-11T01:59:56.679Z,0.35
2023-12-11T02:00:28.636Z,0.35
2023-12-11T02:01:01.085Z,0.29
2023-12-11T02:01:32.947Z,0.35
2023-12-11T02:02:04.884Z,0.33
2023-12-11T02:02:36.600Z,0.30
2023-12-11T02:03:10.597Z,0.30
2023-12-11T02:03:42.821Z,0.29
2023-12-11T02:04:14.830Z,0.36
2023-12-11T02:04:47.538Z,0.35
2023-12-11T02:05:19.460Z,0.32
2023-12-11T02:05:53.077Z,0.32
2023-12-11T02:06:24.768Z,0.24
2023-12-11T02:06:57.520Z,0.21
2023-12-11T02:07:30.288Z,0.30
2023-12-11T02:08:02.192Z,0.36
2023-12-11T02:08:34.139Z,0.36
2023-12-11T02:09:06.486Z,0.39
2023-12-11T02:09:38.436Z,0.33
2023-12-11T02:10:10.854Z,0.35
2023-12-11T02:10:43.180Z,0.38
2023-12-11T02:11:15.086Z,0.35
2023-12-11T02:11:47.473Z,0.39
2023-12-11T02:12:19.329Z,0.35
2023-12-11T02:12:51.491Z,0.32
2023-12-11T02:13:23.498Z,0.36
2023-12-11T02:13:55.182Z,0.32
2023-12-11T02:14:26.964Z,0.33
2023-12-11T02:14:58.629Z,0.38
2023-12-11T02:15:43.244Z,0.41
2023-12-11T02:16:17.261Z,0.46
2023-12-11T02:16:49.336Z,0.35
2023-12-11T02:17:21.027Z,0.42
2023-12-11T02:17:52.765Z,0.45
2023-12-11T02:18:24.635Z,0.43
2023-12-11T02:18:56.624Z,0.42
2023-12-11T02:19:28.561Z,0.41
2023-12-11T02:20:00.445Z,0.35
2023-12-11T02:20:33.109Z,0.33
2023-12-11T02:21:05.065Z,0.29
2023-12-11T02:21:36.860Z,0.30
2023-12-11T02:22:09.850Z,0.33
2023-12-11T02:22:41.753Z,0.33
2023-12-11T02:23:28.583Z,0.29
2023-12-11T02:24:29.047Z,0.28
2023-12-11T02:25:05.435Z,0.38
2023-12-11T02:25:37.589Z,0.42
2023-12-11T02:26:12.832Z,0.36
2023-12-11T02:26:44.820Z,0.33
2023-12-11T02:27:17.303Z,0.36
2023-12-11T02:27:48.995Z,0.41
2023-12-11T02:28:20.686Z,0.41
2023-12-11T02:28:52.392Z,0.43
2023-12-11T02:29:25.311Z,0.48
2023-12-11T02:29:57.430Z,0.50
2023-12-11T02:30:32.716Z,0.53
2023-12-11T02:31:04.866Z,0.53
2023-12-11T02:31:38.802Z,0.59
2023-12-11T02:32:10.590Z,0.57
2023-12-11T02:32:42.376Z,0.60
2023-12-11T02:33:14.060Z,0.48
2023-12-11T02:33:46.352Z,0.52
2023-12-11T02:34:18.172Z,0.52
2023-12-11T02:34:50.540Z,0.56
2023-12-11T02:35:22.291Z,0.60
2023-12-11T02:35:54.140Z,0.57
2023-12-11T02:36:25.968Z,0.55
2023-12-11T02:36:57.678Z,0.49
2023-12-11T02:37:29.737Z,0.48
2023-12-11T02:38:01.587Z,0.42
2023-12-11T02:38:33.369Z,0.46
2023-12-11T02:39:05.359Z,0.49
2023-12-11T02:39:37.149Z,0.50
2023-12-11T02:40:09.636Z,0.50
2023-12-11T02:40:41.471Z,0.59
2023-12-11T02:41:13.520Z,0.57
2023-12-11T02:41:45.182Z,0.57
2023-12-11T02:42:16.913Z,0.64
2023-12-11T02:42:49.363Z,0.60
2023-12-11T02:43:21.073Z,0.59
2023-12-11T02:43:52.841Z,0.50
2023-12-11T02:44:24.563Z,0.59
2023-12-11T02:44:56.303Z,0.59
2023-12-11T02:45:28.071Z,0.56
2023-12-11T02:45:59.893Z,0.62
2023-12-11T02:46:31.756Z,0.62
2023-12-11T02:47:03.588Z,0.62
2023-12-11T02:47:35.738Z,0.70
2023-12-11T02:48:07.568Z,0.64
2023-12-11T02:48:39.481Z,0.64
2023-12-11T02:49:11.529Z,0.72
2023-12-11T02:49:43.538Z,0.72
2023-12-11T02:50:15.732Z,0.72
2023-12-11T02:50:47.485Z,0.69
2023-12-11T02:51:19.381Z,0.66
2023-12-11T02:51:51.154Z,0.70
2023-12-11T02:52:22.963Z,0.70
2023-12-11T02:52:54.701Z,0.66
2023-12-11T02:53:26.492Z,0.69
2023-12-11T02:53:58.273Z,0.69
2023-12-11T02:54:30.098Z,0.67
2023-12-11T02:55:01.900Z,0.67
2023-12-11T02:55:33.651Z,0.64
2023-12-11T02:56:05.899Z,0.67
2023-12-11T02:56:41.421Z,0.67
2023-12-11T02:57:13.156Z,0.70
2023-12-11T02:57:44.876Z,0.74
2023-12-11T02:58:16.645Z,0.72
2023-12-11T02:58:48.348Z,0.67
2023-12-11T02:59:20.108Z,0.69
2023-12-11T02:59:51.838Z,0.63
2023-12-11T03:00:23.514Z,0.60
2023-12-11T03:00:55.320Z,0.60
2023-12-11T03:01:27.233Z,0.62
2023-12-11T03:01:59.053Z,0.64
2023-12-11T03:02:30.816Z,0.64
2023-12-11T03:03:02.720Z,0.62
2023-12-11T03:03:34.571Z,0.67
2023-12-11T03:04:07.056Z,0.67
2023-12-11T03:04:39.524Z,0.63
2023-12-11T03:05:11.263Z,0.72
2023-12-11T03:05:43.009Z,0.70
2023-12-11T03:06:20.225Z,0.66
2023-12-11T03:06:55.038Z,0.69
2023-12-11T03:07:26.999Z,0.67
2023-12-11T03:07:58.713Z,0.69
2023-12-11T03:08:30.380Z,0.69
2023-12-11T03:09:04.148Z,0.60
2023-12-11T03:09:35.872Z,0.60
2023-12-11T03:10:08.293Z,0.60
2023-12-11T03:10:40.010Z,0.60
2023-12-11T03:11:11.855Z,0.64
2023-12-11T03:11:43.592Z,0.63
2023-12-11T03:12:15.362Z,0.64
2023-12-11T03:12:47.099Z,0.57
2023-12-11T03:13:18.799Z,0.60
2023-12-11T03:13:50.565Z,0.63
2023-12-11T03:14:22.281Z,0.64
2023-12-11T03:14:54.015Z,0.66
2023-12-11T03:15:25.766Z,0.67
2023-12-11T03:15:57.586Z,0.67
2023-12-11T03:16:29.337Z,0.66
2023-12-11T03:17:01.085Z,0.66
2023-12-11T03:17:33.140Z,0.59
2023-12-11T03:18:05.038Z,0.66
2023-12-11T03:18:37.093Z,0.63
2023-12-11T03:19:08.954Z,0.62
2023-12-11T03:19:40.767Z,0.56
2023-12-11T03:20:15.483Z,0.55
2023-12-11T03:20:47.265Z,0.59
2023-12-11T03:21:19.027Z,0.59
2023-12-11T03:21:50.806Z,0.55
2023-12-11T03:22:24.933Z,0.55
2023-12-11T03:22:56.650Z,0.57
2023-12-11T03:23:28.468Z,0.59
2023-12-11T03:24:00.212Z,0.56
2023-12-11T03:24:31.984Z,0.56
2023-12-11T03:25:03.999Z,0.57
2023-12-11T03:25:35.772Z,0.57
2023-12-11T03:26:07.480Z,0.53
2023-12-11T03:26:39.291Z,0.53
2023-12-11T03:27:11.063Z,0.53
2023-12-11T03:27:42.929Z,0.57
2023-12-11T03:28:14.683Z,0.57
2023-12-11T03:28:46.516Z,0.62
2023-12-11T03:29:18.248Z,0.63
2023-12-11T03:29:50.719Z,0.66
2023-12-11T03:30:22.575Z,0.66
2023-12-11T03:30:54.428Z,0.60
2023-12-11T03:31:26.656Z,0.60
2023-12-11T03:31:58.528Z,0.60
2023-12-11T03:32:31.169Z,0.64
2023-12-11T03:33:03.059Z,0.57
2023-12-11T03:33:34.870Z,0.56
2023-12-11T03:34:06.766Z,0.55
2023-12-11T03:34:38.546Z,0.52
2023-12-11T03:35:10.373Z,0.43
2023-12-11T03:35:42.480Z,0.45
2023-12-11T03:36:14.202Z,0.50
2023-12-11T03:36:46.016Z,0.53
2023-12-11T03:37:17.879Z,0.50
2023-12-11T03:37:49.644Z,0.50
2023-12-11T03:38:22.716Z,0.53
2023-12-11T03:38:54.434Z,0.53
2023-12-11T03:39:26.738Z,0.62
2023-12-11T03:39:58.560Z,0.59
2023-12-11T03:40:30.290Z,0.63
2023-12-11T03:41:02.030Z,0.66
2023-12-11T03:41:33.700Z,0.66
2023-12-11T03:42:05.601Z,0.69
2023-12-11T03:42:37.401Z,0.66
2023-12-11T03:43:09.184Z,0.59
2023-12-11T03:43:40.947Z,0.62
2023-12-11T03:44:12.737Z,0.62
2023-12-11T03:44:44.438Z,0.63
2023-12-11T03:45:16.134Z,0.67
2023-12-11T03:45:48.736Z,0.74
2023-12-11T03:46:20.419Z,0.76
2023-12-11T03:46:52.132Z,0.74
2023-12-11T03:47:24.919Z,0.76
2023-12-11T03:47:56.879Z,0.77
2023-12-11T03:48:28.834Z,0.80
2023-12-11T03:49:00.664Z,0.80
2023-12-11T03:49:32.566Z,0.81
2023-12-11T03:50:04.675Z,0.90
2023-12-11T03:50:36.361Z,0.91
2023-12-11T03:51:08.035Z,0.94
2023-12-11T03:51:39.807Z,0.97
2023-12-11T03:52:11.797Z,1.05
2023-12-11T03:52:43.523Z,1.04
2023-12-11T03:53:15.201Z,1.00
2023-12-11T03:53:46.942Z,1.01
2023-12-11T03:54:18.649Z,1.05
2023-12-11T03:54:50.391Z,0.98
2023-12-11T03:55:22.187Z,1.04
2023-12-11T03:55:54.299Z,1.04
2023-12-11T03:56:26.076Z,1.07
2023-12-11T03:56:57.833Z,1.03
2023-12-11T03:57:29.756Z,0.93
2023-12-11T03:58:01.642Z,0.95
2023-12-11T03:58:33.351Z,1.03
2023-12-11T03:59:05.029Z,1.09
2023-12-11T03:59:36.773Z,1.09
2023-12-11T04:00:09.572Z,1.09
2023-12-11T04:00:41.389Z,1.07
2023-12-11T04:01:13.249Z,1.04
2023-12-11T04:01:46.353Z,1.03
2023-12-11T04:02:18.413Z,1.09
2023-12-11T04:02:50.287Z,1.07
2023-12-11T04:03:22.069Z,1.00
2023-12-11T04:03:54.277Z,1.03
2023-12-11T04:04:26.090Z,1.03
2023-12-11T04:04:57.792Z,1.07
2023-12-11T04:05:29.504Z,1.09
2023-12-11T04:06:01.196Z,1.04
2023-12-11T04:06:33.228Z,1.05
2023-12-11T04:07:04.959Z,1.11
2023-12-11T04:07:36.653Z,1.08
2023-12-11T04:08:08.366Z,1.07
2023-12-11T04:08:43.147Z,1.09
2023-12-11T04:09:14.918Z,1.11
2023-12-11T04:09:46.731Z,1.08
2023-12-11T04:10:18.479Z,1.07
2023-12-11T04:10:50.441Z,1.07
2023-12-11T04:11:22.155Z,1.09
2023-12-11T04:11:54.050Z,1.07
2023-12-11T04:12:25.726Z,1.14
2023-12-11T04:12:59.416Z,1.15
2023-12-11T04:13:31.130Z,1.17
2023-12-11T04:14:02.827Z,1.14
2023-12-11T04:14:34.528Z,1.05
2023-12-11T04:15:06.751Z,1.04
2023-12-11T04:15:38.478Z,1.11
2023-12-11T04:16:10.369Z,1.20
2023-12-11T04:16:45.041Z,1.14
2023-12-11T04:17:16.791Z,1.22
2023-12-11T04:17:48.587Z,1.24
2023-12-11T04:18:20.354Z,1.31
2023-12-11T04:18:52.264Z,1.31
2023-12-11T04:19:24.196Z,1.24
2023-12-11T04:19:56.957Z,1.22
2023-12-11T04:20:28.844Z,1.18
2023-12-11T04:21:00.569Z,1.15
2023-12-11T04:21:32.514Z,1.18
2023-12-11T04:22:04.790Z,1.21
2023-12-11T04:22:36.572Z,1.20
2023-12-11T04:23:08.251Z,1.22
2023-12-11T04:23:40.191Z,1.27
2023-12-11T04:24:14.245Z,1.25
2023-12-11T04:24:46.850Z,1.25
2023-12-11T04:25:18.616Z,1.31
2023-12-11T04:25:50.504Z,1.30
2023-12-11T04:26:22.190Z,1.27
2023-12-11T04:26:53.949Z,1.22
2023-12-11T04:27:26.351Z,1.24
2023-12-11T04:27:58.196Z,1.24
2023-12-11T04:28:29.997Z,1.18
2023-12-11T04:29:01.837Z,1.22
2023-12-11T04:29:33.480Z,1.25
2023-12-11T04:30:06.273Z,1.17
2023-12-11T04:30:38.241Z,1.18
2023-12-11T04:31:09.972Z,1.21
2023-12-11T04:31:41.730Z,1.18
2023-12-11T04:32:13.480Z,1.20
2023-12-11T04:32:45.362Z,1.14
2023-12-11T04:33:17.244Z,1.09
2023-12-11T04:33:49.181Z,1.11
2023-12-11T04:34:21.009Z,1.11
2023-12-11T04:34:52.870Z,1.17
2023-12-11T04:35:24.568Z,1.17
2023-12-11T04:35:56.253Z,1.21
2023-12-11T04:36:27.984Z,1.20
2023-12-11T04:36:59.768Z,1.17
2023-12-11T04:37:31.683Z,1.21
2023-12-11T04:38:04.012Z,1.22
2023-12-11T04:38:35.740Z,1.22
2023-12-11T04:39:07.479Z,1.21
2023-12-11T04:39:39.221Z,1.25
2023-12-11T04:40:11.745Z,1.30
2023-12-11T04:40:43.635Z,1.24
2023-12-11T04:41:15.385Z,1.27
2023-12-11T04:41:47.629Z,1.34
2023-12-11T04:42:19.311Z,1.39
2023-12-11T04:42:51.048Z,1.32
2023-12-11T04:43:22.887Z,1.30
2023-12-11T04:43:54.642Z,1.27
2023-12-11T04:44:26.354Z,1.28
2023-12-11T04:44:58.052Z,1.20
2023-12-11T04:45:29.906Z,1.18
2023-12-11T04:46:01.689Z,1.24
2023-12-11T04:46:34.409Z,1.17
2023-12-11T04:47:06.475Z,1.11
2023-12-11T04:47:38.219Z,1.11
2023-12-11T04:48:10.111Z,1.09
2023-12-11T04:48:42.040Z,1.14
2023-12-11T04:49:13.838Z,1.14
2023-12-11T04:49:45.720Z,1.15
2023-12-11T04:50:17.581Z,1.15
2023-12-11T04:50:49.324Z,1.09
2023-12-11T04:51:21.083Z,1.04
2023-12-11T04:51:53.716Z,1.00
2023-12-11T04:52:25.428Z,1.03
2023-12-11T04:52:57.128Z,1.08
2023-12-11T04:53:28.907Z,1.13
2023-12-11T04:54:00.859Z,1.04
2023-12-11T04:54:32.591Z,1.07
2023-12-11T04:55:04.679Z,1.11
2023-12-11T04:55:37.664Z,1.15
2023-12-11T04:56:09.946Z,1.11
2023-12-11T04:56:41.646Z,1.11
2023-12-11T04:57:13.432Z,1.11
2023-12-11T04:57:45.128Z,1.13
2023-12-11T04:58:16.884Z,1.13
2023-12-11T04:58:48.589Z,1.18
2023-12-11T04:59:20.363Z,1.24
2023-12-11T04:59:52.038Z,1.27
2023-12-11T05:00:23.709Z,1.25
2023-12-11T05:00:55.508Z,1.30
2023-12-11T05:01:28.150Z,1.24
2023-12-11T05:02:00.018Z,1.30
2023-12-11T05:02:32.281Z,1.20
2023-12-11T05:03:04.466Z,1.15
2023-12-11T05:03:36.344Z,1.20
2023-12-11T05:04:08.185Z,1.17
2023-12-11T05:04:40.127Z,1.20
2023-12-11T05:05:12.077Z,1.15
2023-12-11T05:05:43.802Z,1.18
2023-12-11T05:06:15.536Z,1.21
2023-12-11T05:06:47.275Z,1.21
2023-12-11T05:07:18.984Z,1.25
2023-12-11T05:07:50.737Z,1.22
2023-12-11T05:08:22.441Z,1.24
2023-12-11T05:08:54.214Z,1.24
2023-12-11T05:09:25.912Z,1.28
2023-12-11T05:09:57.750Z,1.28
2023-12-11T05:10:29.997Z,1.28
2023-12-11T05:11:01.699Z,1.25
2023-12-11T05:11:33.398Z,1.22
2023-12-11T05:12:05.444Z,1.17
2023-12-11T05:12:37.138Z,1.24
2023-12-11T05:13:09.050Z,1.27
2023-12-11T05:13:40.841Z,1.20
2023-12-11T05:14:12.542Z,1.25
2023-12-11T05:14:44.282Z,1.25
2023-12-11T05:15:16.214Z,1.27
2023-12-11T05:15:48.026Z,1.27
2023-12-11T05:16:20.410Z,1.30
2023-12-11T05:16:53.339Z,1.30
2023-12-11T05:17:25.165Z,1.30
2023-12-11T05:17:56.950Z,1.35
2023-12-11T05:18:28.662Z,1.28
2023-12-11T05:19:00.651Z,1.31
2023-12-11T05:19:32.466Z,1.36
2023-12-11T05:20:04.734Z,1.34
2023-12-11T05:20:36.595Z,1.34
2023-12-11T05:21:09.802Z,1.36
2023-12-11T05:21:45.677Z,1.35
2023-12-11T05:22:17.495Z,1.34
2023-12-11T05:22:49.302Z,1.35
2023-12-11T05:23:21.028Z,1.36
2023-12-11T05:23:54.626Z,1.39
2023-12-11T05:24:26.855Z,1.45
2023-12-11T05:24:58.685Z,1.46
2023-12-11T05:25:30.410Z,1.49
2023-12-11T05:26:02.291Z,1.51
2023-12-11T05:26:34.116Z,1.59
2023-12-11T05:27:05.867Z,1.59
2023-12-11T05:27:37.690Z,1.60
2023-12-11T05:28:09.541Z,1.55
2023-12-11T05:28:41.265Z,1.55
2023-12-11T05:29:12.954Z,1.55
2023-12-11T05:29:44.801Z,1.52
2023-12-11T05:30:17.076Z,1.49
2023-12-11T05:30:48.743Z,1.56
2023-12-11T05:31:20.431Z,1.51
2023-12-11T05:31:52.286Z,1.56
2023-12-11T05:32:24.033Z,1.46
2023-12-11T05:32:55.932Z,1.52
2023-12-11T05:33:27.874Z,1.52
2023-12-11T05:33:59.924Z,1.51
2023-12-11T05:34:31.790Z,1.46
2023-12-11T05:35:05.041Z,1.48
2023-12-11T05:35:36.976Z,1.48
2023-12-11T05:36:09.887Z,1.49
2023-12-11T05:36:41.768Z,1.46
2023-12-11T05:37:13.661Z,1.45
2023-12-11T05:37:45.471Z,1.34
2023-12-11T05:38:17.254Z,1.31
2023-12-11T05:38:49.125Z,1.34
2023-12-11T05:39:20.933Z,1.28
2023-12-11T05:39:58.141Z,1.28
2023-12-11T05:40:44.467Z,1.35
2023-12-11T05:41:16.254Z,1.32
2023-12-11T05:41:48.644Z,1.28
2023-12-11T05:42:20.409Z,1.25
2023-12-11T05:42:52.658Z,1.24
2023-12-11T05:43:24.503Z,1.25
2023-12-11T05:43:58.765Z,1.25
2023-12-11T05:44:30.534Z,1.28
2023-12-11T05:45:02.290Z,1.31
2023-12-11T05:45:34.022Z,1.36
2023-12-11T05:46:05.921Z,1.31
2023-12-11T05:46:37.685Z,1.32
2023-12-11T05:47:09.395Z,1.31
2023-12-11T05:47:41.170Z,1.25
2023-12-11T05:48:12.991Z,1.24
2023-12-11T05:48:44.850Z,1.32
2023-12-11T05:49:16.699Z,1.34
2023-12-11T05:49:48.500Z,1.35
2023-12-11T05:50:20.306Z,1.36
2023-12-11T05:50:51.982Z,1.36
2023-12-11T05:51:24.311Z,1.34
2023-12-11T05:51:57.701Z,1.35
2023-12-11T05:52:29.483Z,1.35
2023-12-11T05:53:01.204Z,1.34
2023-12-11T05:53:32.873Z,1.32
2023-12-11T05:54:04.745Z,1.36
2023-12-11T05:54:36.601Z,1.30
2023-12-11T05:55:08.471Z,1.27
2023-12-11T05:55:40.181Z,1.28
2023-12-11T05:56:12.043Z,1.32
2023-12-11T05:56:43.757Z,1.32
2023-12-11T05:57:15.453Z,1.34
2023-12-11T05:57:48.845Z,1.31
2023-12-11T05:58:20.778Z,1.28
2023-12-11T05:58:53.292Z,1.28
2023-12-11T05:59:25.065Z,1.30
2023-12-11T05:59:56.909Z,1.28
2023-12-11T06:00:28.638Z,1.28
2023-12-11T06:01:00.445Z,1.25
2023-12-11T06:01:32.375Z,1.27
2023-12-11T06:02:04.218Z,1.24
2023-12-11T06:02:36.221Z,1.18
2023-12-11T06:03:08.082Z,1.28
2023-12-11T06:03:39.882Z,1.21
2023-12-11T06:04:11.659Z,1.24
2023-12-11T06:04:43.408Z,1.22
2023-12-11T06:05:15.317Z,1.14
2023-12-11T06:05:47.165Z,1.11
2023-12-11T06:06:19.236Z,1.13
2023-12-11T06:06:50.941Z,1.08
2023-12-11T06:07:22.734Z,0.97
2023-12-11T06:07:54.509Z,0.93
2023-12-11T06:08:27.185Z,0.98
2023-12-11T06:08:58.945Z,0.95
2023-12-11T06:09:30.635Z,0.94
2023-12-11T06:10:03.583Z,0.93
2023-12-11T06:10:35.491Z,0.94
2023-12-11T06:11:07.187Z,1.03
2023-12-11T06:11:38.887Z,1.03
2023-12-11T06:12:10.834Z,1.01
2023-12-11T06:12:42.934Z,0.97
2023-12-11T06:13:14.641Z,0.93
2023-12-11T06:13:46.373Z,0.95
2023-12-11T06:14:18.097Z,0.98
2023-12-11T06:14:50.080Z,0.94
2023-12-11T06:15:21.889Z,0.91
2023-12-11T06:15:53.599Z,0.95
2023-12-11T06:16:25.742Z,0.93
2023-12-11T06:16:57.499Z,0.91
2023-12-11T06:17:29.563Z,0.88
2023-12-11T06:18:01.581Z,0.93
2023-12-11T06:18:33.360Z,0.88
2023-12-11T06:19:05.282Z,0.88
2023-12-11T06:19:37.025Z,0.88
2023-12-11T06:20:11.132Z,0.88
2023-12-11T06:20:42.841Z,0.91
2023-12-11T06:21:21.385Z,0.94
2023-12-11T06:21:53.085Z,0.93
2023-12-11T06:22:24.859Z,0.93
2023-12-11T06:22:56.602Z,0.90
2023-12-11T06:23:28.310Z,0.90
2023-12-11T06:24:00.056Z,0.94
2023-12-11T06:24:31.821Z,0.87
2023-12-11T06:25:03.842Z,0.88
2023-12-11T06:25:35.661Z,0.91
2023-12-11T06:26:07.424Z,0.90
2023-12-11T06:26:43.554Z,0.90
2023-12-11T06:27:15.497Z,0.93
2023-12-11T06:27:48.554Z,1.15
2023-12-11T06:28:21.573Z,1.14
2023-12-11T06:28:53.260Z,1.08
2023-12-11T06:29:25.035Z,1.01
2023-12-11T06:29:56.743Z,0.98
2023-12-11T06:30:28.448Z,1.01
2023-12-11T06:31:00.160Z,1.01
2023-12-11T06:31:32.011Z,1.00
2023-12-11T06:32:04.130Z,1.01
2023-12-11T06:32:35.886Z,1.01
2023-12-11T06:33:07.703Z,1.03
2023-12-11T06:33:41.281Z,1.05
2023-12-11T06:34:13.077Z,1.04
2023-12-11T06:34:45.032Z,1.03
2023-12-11T06:35:16.854Z,1.05
2023-12-11T06:35:48.536Z,1.14
2023-12-11T06:36:21.010Z,1.11
2023-12-11T06:36:52.836Z,1.13
2023-12-11T06:37:24.924Z,1.13
2023-12-11T06:37:57.011Z,1.13
2023-12-11T06:38:28.725Z,1.15
2023-12-11T06:39:00.503Z,1.11
2023-12-11T06:39:36.692Z,1.14
2023-12-11T06:40:10.418Z,1.13
2023-12-11T06:40:42.374Z,1.11
2023-12-11T06:41:14.092Z,1.11
2023-12-11T06:41:45.776Z,1.03
2023-12-11T06:42:17.914Z,1.04
2023-12-11T06:42:49.746Z,1.01
2023-12-11T06:43:21.435Z,1.08
2023-12-11T06:43:54.594Z,1.07
2023-12-11T06:44:26.300Z,1.08
2023-12-11T06:45:00.739Z,1.09
2023-12-11T06:45:35.453Z,1.14
2023-12-11T06:46:08.864Z,1.18
2023-12-11T06:46:40.802Z,1.21
2023-12-11T06:47:13.948Z,1.20
2023-12-11T06:47:45.674Z,1.17
2023-12-11T06:48:17.388Z,1.17
2023-12-11T06:48:49.323Z,1.14
2023-12-11T06:49:21.543Z,1.15
2023-12-11T06:49:54.222Z,1.15
2023-12-11T06:50:26.128Z,1.21
2023-12-11T06:50:58.123Z,1.21
2023-12-11T06:51:30.609Z,1.24
2023-12-11T06:52:02.539Z,1.28
2023-12-11T06:52:34.241Z,1.25
2023-12-11T06:53:05.934Z,1.28
2023-12-11T06:53:37.818Z,1.32
2023-12-11T06:54:09.612Z,1.31
2023-12-11T06:54:42.096Z,1.31
2023-12-11T06:55:17.354Z,1.34
2023-12-11T06:55:49.290Z,1.31
2023-12-11T06:56:21.409Z,1.24
2023-12-11T06:56:53.727Z,1.22
2023-12-11T06:57:29.774Z,1.22
2023-12-11T06:58:01.633Z,1.20
2023-12-11T06:58:33.376Z,1.20
2023-12-11T06:59:05.088Z,1.15
2023-12-11T06:59:37.319Z,1.20
2023-12-11T07:00:11.107Z,1.17
2023-12-11T07:00:42.923Z,1.30
2023-12-11T07:01:14.997Z,1.30
2023-12-11T07:01:46.946Z,1.31
2023-12-11T07:02:18.838Z,1.36
2023-12-11T07:02:50.663Z,1.34
2023-12-11T07:03:22.574Z,1.42
2023-12-11T07:03:55.197Z,1.36
2023-12-11T07:04:27.984Z,1.28
2023-12-11T07:05:00.034Z,1.24
2023-12-11T07:05:31.929Z,1.24
2023-12-11T07:06:04.085Z,1.27
2023-12-11T07:06:36.146Z,1.30
2023-12-11T07:07:08.435Z,1.31
2023-12-11T07:07:40.193Z,1.25
2023-12-11T07:08:12.015Z,1.22
2023-12-11T07:08:43.773Z,1.30
2023-12-11T07:09:15.474Z,1.30